createdAt,value
2023-09-01T00:02:07.987Z,20.34
2023-09-01T00:04:34.401Z,20.33
2023-09-01T00:07:01.255Z,20.33
2023-09-01T00:09:28.106Z,20.33
2023-09-01T00:11:54.544Z,20.32
2023-09-01T00:14:21.008Z,20.31
2023-09-01T00:16:47.494Z,20.31
2023-09-01T00:19:13.933Z,20.30
2023-09-01T00:21:40.990Z,20.30
2023-09-01T00:24:08.175Z,20.30
2023-09-01T00:26:34.639Z,20.29
2023-09-01T00:29:01.039Z,20.28
2023-09-01T00:31:27.545Z,20.27
2023-09-01T00:33:54.007Z,20.27
2023-09-01T00:36:20.468Z,20.26
2023-09-01T00:38:46.935Z,20.26
2023-09-01T00:41:13.341Z,20.24
2023-09-01T00:43:39.800Z,20.24
2023-09-01T00:46:06.407Z,20.24
2023-09-01T00:48:33.362Z,20.24
2023-09-01T00:51:00.137Z,20.22
2023-09-01T00:53:27.141Z,20.22
2023-09-01T00:55:56.141Z,20.20
2023-09-01T00:58:22.785Z,20.22
2023-09-01T01:03:33.321Z,20.19
2023-09-01T01:06:42.920Z,20.18
2023-09-01T01:09:16.830Z,20.17
2023-09-01T01:11:52.402Z,20.18
2023-09-01T01:14:41.942Z,20.17
2023-09-01T01:17:09.871Z,20.17
2023-09-01T01:19:42.985Z,20.14
2023-09-01T01:22:09.674Z,20.14
2023-09-01T01:24:36.994Z,20.14
2023-09-01T01:27:03.641Z,20.14
2023-09-01T01:29:30.053Z,20.13
2023-09-01T01:31:58.749Z,20.13
2023-09-01T01:34:38.853Z,20.12
2023-09-01T01:37:31.097Z,20.12
2023-09-01T01:40:01.039Z,20.12
2023-09-01T01:42:30.694Z,20.09
2023-09-01T01:44:58.962Z,20.09
2023-09-01T01:47:26.105Z,20.09
2023-09-01T01:49:52.571Z,20.08
2023-09-01T01:52:19.095Z,20.08
2023-09-01T01:54:45.490Z,20.07
2023-09-01T01:57:15.480Z,20.06
2023-09-01T01:59:42.907Z,20.06
2023-09-01T02:02:09.439Z,20.05
2023-09-01T02:04:36.683Z,20.04
2023-09-01T02:07:06.589Z,20.03
2023-09-01T02:09:34.208Z,20.03
2023-09-01T02:12:00.727Z,20.03
2023-09-01T02:14:27.171Z,20.02
2023-09-01T02:16:54.032Z,20.02
2023-09-01T02:19:20.603Z,20.01
2023-09-01T02:21:47.075Z,20.00
2023-09-01T02:24:13.629Z,20.00
2023-09-01T02:26:40.144Z,19.99
2023-09-01T02:29:06.696Z,19.99
2023-09-01T02:31:33.254Z,19.98
2023-09-01T02:33:59.697Z,19.97
2023-09-01T02:36:31.388Z,19.97
2023-09-01T02:38:58.749Z,19.96
2023-09-01T02:41:26.417Z,19.95
2023-09-01T02:43:54.348Z,19.94
2023-09-01T02:46:21.429Z,19.95
2023-09-01T02:48:48.172Z,19.94
2023-09-01T02:51:14.632Z,19.93
2023-09-01T02:53:41.034Z,19.93
2023-09-01T02:56:08.727Z,19.91
2023-09-01T02:58:36.405Z,19.92
2023-09-01T03:01:10.324Z,19.91
2023-09-01T03:03:39.109Z,19.91
2023-09-01T03:06:11.952Z,19.89
2023-09-01T03:08:39.576Z,19.90
2023-09-01T03:11:06.655Z,19.88
2023-09-01T03:13:33.251Z,19.88
2023-09-01T03:15:59.782Z,19.86
2023-09-01T03:18:26.381Z,19.86
2023-09-01T03:20:56.611Z,19.85
2023-09-01T03:23:23.282Z,19.85
2023-09-01T03:25:58.993Z,19.84
2023-09-01T03:28:25.436Z,19.84
2023-09-01T03:30:51.948Z,19.83
2023-09-01T03:33:19.255Z,19.84
2023-09-01T03:35:45.660Z,19.83
2023-09-01T03:38:12.671Z,19.81
2023-09-01T03:40:39.419Z,19.82
2023-09-01T03:43:08.676Z,19.81
2023-09-01T03:45:35.306Z,19.80
2023-09-01T03:48:02.171Z,19.81
2023-09-01T03:50:28.736Z,19.81
2023-09-01T03:52:55.163Z,19.80
2023-09-01T03:55:21.667Z,19.80
2023-09-01T03:57:48.094Z,19.79
2023-09-01T04:00:15.114Z,19.79
2023-09-01T04:02:41.711Z,19.78
2023-09-01T04:05:08.271Z,19.78
2023-09-01T04:07:34.625Z,19.78
2023-09-01T04:10:03.940Z,19.77
2023-09-01T04:12:31.473Z,19.77
2023-09-01T04:14:57.888Z,19.77
2023-09-01T04:17:24.271Z,19.76
2023-09-01T04:19:50.724Z,19.77
2023-09-01T04:22:17.109Z,19.77
2023-09-01T04:24:44.257Z,19.76
2023-09-01T04:27:10.811Z,19.75
2023-09-01T04:29:39.551Z,19.76
2023-09-01T04:32:06.128Z,19.75
2023-09-01T04:34:33.795Z,19.74
2023-09-01T04:37:00.248Z,19.75
2023-09-01T04:39:26.871Z,19.74
2023-09-01T04:41:53.249Z,19.74
2023-09-01T04:44:19.710Z,19.73
2023-09-01T04:46:46.139Z,19.74
2023-09-01T04:49:12.558Z,19.74
2023-09-01T04:51:39.068Z,19.72
2023-09-01T04:54:05.647Z,19.72
2023-09-01T04:56:33.920Z,19.74
2023-09-01T04:59:00.351Z,19.73
2023-09-01T05:01:26.876Z,19.73
2023-09-01T05:03:53.360Z,19.73
2023-09-01T05:06:19.866Z,19.73
2023-09-01T05:08:46.277Z,19.72
2023-09-01T05:11:12.744Z,19.72
2023-09-01T05:13:39.250Z,19.71
2023-09-01T05:16:08.446Z,19.72
2023-09-01T05:18:34.884Z,19.72
2023-09-01T05:21:01.344Z,19.72
2023-09-01T05:23:32.286Z,19.71
2023-09-01T05:25:58.815Z,19.72
2023-09-01T05:28:25.260Z,19.71
2023-09-01T05:30:51.694Z,19.71
2023-09-01T05:33:18.218Z,19.71
2023-09-01T05:35:44.669Z,19.71
2023-09-01T05:38:11.193Z,19.72
2023-09-01T05:40:38.801Z,19.71
2023-09-01T05:43:05.339Z,19.72
2023-09-01T05:45:31.794Z,19.72
2023-09-01T05:47:58.300Z,19.71
2023-09-01T05:50:24.749Z,19.71
2023-09-01T05:52:51.214Z,19.72
2023-09-01T05:55:18.079Z,19.71
2023-09-01T05:57:44.502Z,19.72
2023-09-01T06:00:11.400Z,19.73
2023-09-01T06:02:37.982Z,19.73
2023-09-01T06:05:06.200Z,19.74
2023-09-01T06:07:32.653Z,19.74
2023-09-01T06:09:59.784Z,19.74
2023-09-01T06:12:26.369Z,19.74
2023-09-01T06:14:52.856Z,19.76
2023-09-01T06:17:20.927Z,19.75
2023-09-01T06:19:50.996Z,19.76
2023-09-01T06:22:17.542Z,19.75
2023-09-01T06:24:43.955Z,19.77
2023-09-01T06:27:10.478Z,19.77
2023-09-01T06:29:36.946Z,19.78
2023-09-01T06:32:04.089Z,19.78
2023-09-01T06:34:30.579Z,19.77
2023-09-01T06:36:57.737Z,19.78
2023-09-01T06:39:24.101Z,19.78
2023-09-01T06:41:50.495Z,19.79
2023-09-01T06:44:16.997Z,19.80
2023-09-01T06:46:43.531Z,19.80
2023-09-01T06:49:09.955Z,19.80
2023-09-01T06:51:36.376Z,19.81
2023-09-01T06:54:02.897Z,19.82
2023-09-01T06:56:29.481Z,19.82
2023-09-01T06:58:55.988Z,19.82
2023-09-01T07:01:22.808Z,19.83
2023-09-01T07:03:49.603Z,19.83
2023-09-01T07:06:16.112Z,19.82
2023-09-01T07:08:42.668Z,19.84
2023-09-01T07:11:13.732Z,19.84
2023-09-01T07:13:40.253Z,19.83
2023-09-01T07:16:07.804Z,19.84
2023-09-01T07:18:34.823Z,19.84
2023-09-01T07:21:01.791Z,19.84
2023-09-01T07:23:28.869Z,19.86
2023-09-01T07:25:56.291Z,19.85
2023-09-01T07:28:23.638Z,19.86
2023-09-01T07:30:50.179Z,19.87
2023-09-01T07:33:17.387Z,19.87
2023-09-01T07:35:50.882Z,19.88
2023-09-01T07:38:18.148Z,19.88
2023-09-01T07:40:45.459Z,19.88
2023-09-01T07:43:12.161Z,19.88
2023-09-01T07:45:40.645Z,19.88
2023-09-01T07:48:20.455Z,19.90
2023-09-01T07:50:48.016Z,19.91
2023-09-01T07:53:14.450Z,19.90
2023-09-01T07:55:40.926Z,19.91
2023-09-01T07:58:07.360Z,19.91
2023-09-01T08:00:33.921Z,19.92
2023-09-01T08:03:00.514Z,19.91
2023-09-01T08:05:27.000Z,19.91
2023-09-01T08:07:54.452Z,19.93
2023-09-01T08:10:21.162Z,19.93
2023-09-01T08:12:47.763Z,19.93
2023-09-01T08:15:14.209Z,19.93
2023-09-01T08:17:40.763Z,19.93
2023-09-01T08:20:08.126Z,19.95
2023-09-01T08:22:34.564Z,19.94
2023-09-01T08:25:01.052Z,19.95
2023-09-01T08:27:28.957Z,19.96
2023-09-01T08:29:57.431Z,19.97
2023-09-01T08:32:23.894Z,19.97
2023-09-01T08:34:50.309Z,19.97
2023-09-01T08:37:18.156Z,19.98
2023-09-01T08:39:44.998Z,19.98
2023-09-01T08:42:12.957Z,19.98
2023-09-01T08:44:41.462Z,19.98
2023-09-01T08:47:10.202Z,19.99
2023-09-01T08:49:36.739Z,19.99
2023-09-01T08:52:04.271Z,20.01
2023-09-01T08:54:31.652Z,20.01
2023-09-01T08:56:58.075Z,20.00
2023-09-01T08:59:26.170Z,20.01
2023-09-01T09:01:52.661Z,20.02
2023-09-01T09:04:19.175Z,20.02
2023-09-01T09:06:46.647Z,20.01
2023-09-01T09:09:15.890Z,20.03
2023-09-01T09:11:56.841Z,20.02
2023-09-01T09:14:23.604Z,20.02
2023-09-01T09:16:55.194Z,20.03
2023-09-01T09:19:22.525Z,20.03
2023-09-01T09:21:49.390Z,20.03
2023-09-01T09:24:33.623Z,20.05
2023-09-01T09:27:00.168Z,20.04
2023-09-01T09:29:26.745Z,20.04
2023-09-01T09:31:53.497Z,20.04
2023-09-01T09:34:26.750Z,20.05
2023-09-01T09:36:53.330Z,20.04
2023-09-01T09:39:24.905Z,20.05
2023-09-01T09:41:51.919Z,20.05
2023-09-01T09:44:27.327Z,20.06
2023-09-01T09:46:55.527Z,20.06
2023-09-01T09:49:23.316Z,20.06
2023-09-01T09:51:52.953Z,20.07
2023-09-01T09:54:24.862Z,20.06
2023-09-01T09:56:53.265Z,20.05
2023-09-01T09:59:34.004Z,20.06
2023-09-01T10:02:07.214Z,20.06
2023-09-01T10:04:35.804Z,20.06
2023-09-01T10:07:03.609Z,20.06
2023-09-01T10:09:31.478Z,20.06
2023-09-01T10:11:59.357Z,20.06
2023-09-01T10:14:27.874Z,20.06
2023-09-01T10:16:54.625Z,20.06
2023-09-01T10:19:22.497Z,20.05
2023-09-01T10:21:49.071Z,20.05
2023-09-01T10:24:17.457Z,20.06
2023-09-01T10:26:44.809Z,20.07
2023-09-01T10:29:12.109Z,20.05
2023-09-01T10:31:38.641Z,20.06
2023-09-01T10:34:09.688Z,20.05
2023-09-01T10:36:37.329Z,20.06
2023-09-01T10:39:25.300Z,20.05
2023-09-01T10:42:04.014Z,20.06
2023-09-01T10:44:45.863Z,20.07
2023-09-01T10:47:36.388Z,20.08
2023-09-01T10:50:05.592Z,20.09
2023-09-01T10:52:32.939Z,20.08
2023-09-01T10:55:06.999Z,20.10
2023-09-01T10:57:44.670Z,20.09
2023-09-01T11:00:32.203Z,20.10
2023-09-01T11:03:31.602Z,20.13
2023-09-01T11:06:07.015Z,20.13
2023-09-01T11:08:33.604Z,20.14
2023-09-01T11:11:10.950Z,20.14
2023-09-01T11:13:37.713Z,20.15
2023-09-01T11:16:12.639Z,20.15
2023-09-01T11:18:39.353Z,20.15
2023-09-01T11:21:09.220Z,20.15
2023-09-01T11:23:35.964Z,20.16
2023-09-01T11:26:04.505Z,20.16
2023-09-01T11:28:31.064Z,20.16
2023-09-01T11:31:04.487Z,20.17
2023-09-01T11:33:37.634Z,20.17
2023-09-01T11:36:11.765Z,20.18
2023-09-01T11:38:40.332Z,20.17
2023-09-01T11:41:13.228Z,20.18
2023-09-01T11:43:41.548Z,20.18
2023-09-01T11:46:09.052Z,20.19
2023-09-01T11:48:35.697Z,20.20
2023-09-01T11:51:02.305Z,20.21
2023-09-01T11:53:30.261Z,20.23
2023-09-01T11:56:02.360Z,20.24
2023-09-01T11:58:34.648Z,20.25
2023-09-01T12:01:12.392Z,20.26
2023-09-01T12:03:39.240Z,20.27
2023-09-01T12:06:22.324Z,20.28
2023-09-01T12:08:50.374Z,20.31
2023-09-01T12:11:18.929Z,20.31
2023-09-01T12:13:47.815Z,20.31
2023-09-01T12:16:24.879Z,20.31
2023-09-01T12:18:54.022Z,20.31
2023-09-01T12:21:20.599Z,20.32
2023-09-01T12:23:47.838Z,20.32
2023-09-01T12:26:15.327Z,20.32
2023-09-01T12:28:43.279Z,20.32
2023-09-01T12:31:11.265Z,20.32
2023-09-01T12:33:38.355Z,20.32
2023-09-01T12:36:06.090Z,20.31
2023-09-01T12:38:32.917Z,20.31
2023-09-01T12:40:59.507Z,20.32
2023-09-01T12:43:26.025Z,20.33
2023-09-01T12:45:52.470Z,20.33
2023-09-01T12:48:19.017Z,20.34
2023-09-01T12:50:47.775Z,20.38
2023-09-01T12:53:15.944Z,20.41
2023-09-01T12:55:42.821Z,20.42
2023-09-01T12:58:09.939Z,20.46
2023-09-01T13:00:36.556Z,20.50
2023-09-01T13:03:03.401Z,20.54
2023-09-01T13:05:31.059Z,20.56
2023-09-01T13:07:58.649Z,20.58
2023-09-01T13:10:25.130Z,20.60
2023-09-01T13:12:51.564Z,20.61
2023-09-01T13:15:18.105Z,20.63
2023-09-01T13:17:46.233Z,20.65
2023-09-01T13:20:15.760Z,20.66
2023-09-01T13:22:42.907Z,20.67
2023-09-01T13:25:10.176Z,20.68
2023-09-01T13:27:36.664Z,20.67
2023-09-01T13:30:03.539Z,20.69
2023-09-01T13:32:30.074Z,20.70
2023-09-01T13:34:56.549Z,20.70
2023-09-01T13:37:23.502Z,20.70
2023-09-01T13:39:55.570Z,20.72
2023-09-01T13:42:26.741Z,20.74
2023-09-01T13:44:57.697Z,20.74
2023-09-01T13:47:25.135Z,20.77
2023-09-01T13:49:52.842Z,20.77
2023-09-01T13:52:20.320Z,20.77
2023-09-01T13:54:49.655Z,20.77
2023-09-01T13:57:16.245Z,20.78
2023-09-01T13:59:42.748Z,20.79
2023-09-01T14:02:09.268Z,20.79
2023-09-01T14:04:35.730Z,20.81
2023-09-01T14:07:03.474Z,20.81
2023-09-01T14:09:29.972Z,20.82
2023-09-01T14:11:56.399Z,20.81
2023-09-01T14:14:22.907Z,20.82
2023-09-01T14:16:49.520Z,20.80
2023-09-01T14:19:16.390Z,20.80
2023-09-01T14:21:42.948Z,20.83
2023-09-01T14:24:15.093Z,20.88
2023-09-01T14:26:52.892Z,20.89
2023-09-01T14:29:19.658Z,20.91
2023-09-01T14:31:46.346Z,20.91
2023-09-01T14:34:14.041Z,20.93
2023-09-01T14:36:40.660Z,20.92
2023-09-01T14:39:07.666Z,20.96
2023-09-01T14:41:34.264Z,21.06
2023-09-01T14:44:00.824Z,21.30
2023-09-01T14:46:27.455Z,21.58
2023-09-01T14:48:53.926Z,21.78
2023-09-01T14:51:20.322Z,22.29
2023-09-01T14:53:49.076Z,22.77
2023-09-01T14:56:16.081Z,23.10
2023-09-01T14:58:42.512Z,23.39
2023-09-01T15:01:08.956Z,23.61
2023-09-01T15:03:35.638Z,23.85
2023-09-01T15:06:02.231Z,24.08
2023-09-01T15:08:28.711Z,24.24
2023-09-01T15:10:56.219Z,24.34
2023-09-01T15:13:23.502Z,24.26
2023-09-01T15:15:50.391Z,23.65
2023-09-01T15:18:17.600Z,23.72
2023-09-01T15:20:44.148Z,23.88
2023-09-01T15:23:10.757Z,23.93
2023-09-01T15:25:39.087Z,24.06
2023-09-01T15:28:05.963Z,23.86
2023-09-01T15:30:32.807Z,23.85
2023-09-01T15:32:59.250Z,23.58
2023-09-01T15:35:28.102Z,23.44
2023-09-01T15:37:58.853Z,23.23
2023-09-01T15:40:25.653Z,23.12
2023-09-01T15:42:56.588Z,23.08
2023-09-01T15:45:24.121Z,23.09
2023-09-01T15:47:51.391Z,23.00
2023-09-01T15:50:22.730Z,22.93
2023-09-01T15:52:54.676Z,22.94
2023-09-01T15:55:21.148Z,22.90
2023-09-01T15:57:47.627Z,22.87
2023-09-01T16:00:14.294Z,22.80
2023-09-01T16:02:40.793Z,22.76
2023-09-01T16:05:07.509Z,22.73
2023-09-01T16:07:34.017Z,22.70
2023-09-01T16:10:00.470Z,22.67
2023-09-01T16:12:27.737Z,22.63
2023-09-01T16:14:54.520Z,22.60
2023-09-01T16:17:20.974Z,22.60
2023-09-01T16:19:47.411Z,22.58
2023-09-01T16:22:14.012Z,22.56
2023-09-01T16:24:40.504Z,22.55
2023-09-01T16:27:08.677Z,22.52
2023-09-01T16:29:35.313Z,22.48
2023-09-01T16:32:02.110Z,22.44
2023-09-01T16:34:28.549Z,22.39
2023-09-01T16:36:55.008Z,22.35
2023-09-01T16:39:21.469Z,22.30
2023-09-01T16:41:47.954Z,22.26
2023-09-01T16:44:14.653Z,22.23
2023-09-01T16:46:41.184Z,22.20
2023-09-01T16:49:08.858Z,22.18
2023-09-01T16:51:35.327Z,22.15
2023-09-01T16:54:01.971Z,22.11
2023-09-01T16:56:28.749Z,22.08
2023-09-01T16:58:55.203Z,22.06
2023-09-01T17:01:21.895Z,22.02
2023-09-01T17:03:48.401Z,21.99
2023-09-01T17:06:14.819Z,21.97
2023-09-01T17:08:48.718Z,21.94
2023-09-01T17:11:16.720Z,21.92
2023-09-01T17:13:43.193Z,21.90
2023-09-01T17:16:09.739Z,21.87
2023-09-01T17:18:36.772Z,21.85
2023-09-01T17:21:05.505Z,21.84
2023-09-01T17:23:31.955Z,21.80
2023-09-01T17:25:58.744Z,21.79
2023-09-01T17:28:25.166Z,21.76
2023-09-01T17:30:51.745Z,21.75
2023-09-01T17:33:18.518Z,21.74
2023-09-01T17:35:45.625Z,21.71
2023-09-01T17:38:12.592Z,21.69
2023-09-01T17:40:43.035Z,21.65
2023-09-01T17:43:09.770Z,21.65
2023-09-01T17:45:36.289Z,21.62
2023-09-01T17:48:03.089Z,21.60
2023-09-01T17:50:29.590Z,21.58
2023-09-01T17:52:55.991Z,21.56
2023-09-01T17:55:22.604Z,21.54
2023-09-01T17:57:49.153Z,21.53
2023-09-01T18:00:15.813Z,21.51
2023-09-01T18:02:42.636Z,21.48
2023-09-01T18:05:09.854Z,21.48
2023-09-01T18:07:36.372Z,21.46
2023-09-01T18:10:03.558Z,21.44
2023-09-01T18:12:30.180Z,21.44
2023-09-01T18:14:56.878Z,21.43
2023-09-01T18:17:23.789Z,21.40
2023-09-01T18:19:50.496Z,21.39
2023-09-01T18:22:16.936Z,21.38
2023-09-01T18:24:43.380Z,21.36
2023-09-01T18:27:24.670Z,21.34
2023-09-01T18:29:51.642Z,21.35
2023-09-01T18:32:18.120Z,21.34
2023-09-01T18:34:45.054Z,21.33
2023-09-01T18:37:17.642Z,21.32
2023-09-01T18:39:44.129Z,21.31
2023-09-01T18:42:34.731Z,21.30
2023-09-01T18:45:02.786Z,21.29
2023-09-01T18:47:29.697Z,21.28
2023-09-01T18:49:56.369Z,21.28
2023-09-01T18:52:22.921Z,21.26
2023-09-01T18:54:49.297Z,21.26
2023-09-01T18:57:16.499Z,21.25
2023-09-01T18:59:43.247Z,21.25
2023-09-01T19:02:46.853Z,21.24
2023-09-01T19:05:33.828Z,21.22
2023-09-01T19:08:22.952Z,21.21
2023-09-01T19:10:51.305Z,21.22
2023-09-01T19:13:20.225Z,21.22
2023-09-01T19:15:58.164Z,21.20
2023-09-01T19:18:31.557Z,21.19
2023-09-01T19:21:01.549Z,21.19
2023-09-01T19:23:34.705Z,21.19
2023-09-01T19:26:04.647Z,21.19
2023-09-01T19:28:37.848Z,21.18
2023-09-01T19:31:07.384Z,21.17
2023-09-01T19:33:36.424Z,21.18
2023-09-01T19:36:03.430Z,21.16
2023-09-01T19:38:30.470Z,21.16
2023-09-01T19:40:59.570Z,21.15
2023-09-01T19:43:27.469Z,21.14
2023-09-01T19:45:55.094Z,21.14
2023-09-01T19:48:22.648Z,21.14
2023-09-01T19:50:49.378Z,21.13
2023-09-01T19:53:27.499Z,21.12
2023-09-01T19:56:01.658Z,21.11
2023-09-01T19:58:31.652Z,21.11
2023-09-01T20:00:59.481Z,21.10
2023-09-01T20:03:30.054Z,21.10
2023-09-01T20:05:56.871Z,21.09
2023-09-01T20:08:25.864Z,21.08
2023-09-01T20:10:52.272Z,21.09
2023-09-01T20:13:18.875Z,21.08
2023-09-01T20:15:49.157Z,21.07
2023-09-01T20:18:18.271Z,21.06
2023-09-01T20:20:47.957Z,21.06
2023-09-01T20:23:14.934Z,21.06
2023-09-01T20:25:43.735Z,21.04
2023-09-01T20:28:11.347Z,21.05
2023-09-01T20:30:37.893Z,21.04
2023-09-01T20:33:04.820Z,21.04
2023-09-01T20:35:31.405Z,21.03
2023-09-01T20:37:57.985Z,21.03
2023-09-01T20:40:24.790Z,21.03
2023-09-01T20:42:53.429Z,21.03
2023-09-01T20:45:19.950Z,21.02
2023-09-01T20:47:46.449Z,21.01
2023-09-01T20:50:12.918Z,20.99
2023-09-01T20:52:40.591Z,21.00
2023-09-01T20:55:09.266Z,20.98
2023-09-01T20:57:40.720Z,20.97
2023-09-01T21:00:09.610Z,20.97
2023-09-01T21:02:36.176Z,20.97
2023-09-01T21:05:05.616Z,20.97
2023-09-01T21:07:36.524Z,20.96
2023-09-01T21:10:05.133Z,20.96
2023-09-01T21:12:31.562Z,20.96
2023-09-01T21:14:58.807Z,20.94
2023-09-01T21:17:25.897Z,20.94
2023-09-01T21:19:53.026Z,20.94
2023-09-01T21:22:20.365Z,20.94
2023-09-01T21:24:46.907Z,20.94
2023-09-01T21:27:13.541Z,20.93
2023-09-01T21:29:40.404Z,20.93
2023-09-01T21:32:07.261Z,20.96
2023-09-01T21:34:34.165Z,20.95
2023-09-01T21:37:01.834Z,20.93
2023-09-01T21:39:28.911Z,20.92
2023-09-01T21:41:55.303Z,20.91
2023-09-01T21:44:21.920Z,20.90
2023-09-01T21:46:48.354Z,20.89
2023-09-01T21:49:15.986Z,20.90
2023-09-01T21:51:43.538Z,20.89
2023-09-01T21:54:09.945Z,20.90
2023-09-01T21:56:36.381Z,20.89
2023-09-01T21:59:04.599Z,20.88
2023-09-01T22:01:33.313Z,20.88
2023-09-01T22:04:01.149Z,20.87
2023-09-01T22:06:27.814Z,20.87
2023-09-01T22:08:54.245Z,20.87
2023-09-01T22:11:20.712Z,20.85
2023-09-01T22:13:48.078Z,20.85
2023-09-01T22:16:14.583Z,20.84
2023-09-01T22:18:41.088Z,20.82
2023-09-01T22:21:08.887Z,20.83
2023-09-01T22:23:35.376Z,20.82
2023-09-01T22:26:02.302Z,20.82
2023-09-01T22:28:29.825Z,20.81
2023-09-01T22:30:56.565Z,20.80
2023-09-01T22:33:23.115Z,20.80
2023-09-01T22:35:49.622Z,20.80
2023-09-01T22:38:18.448Z,20.79
2023-09-01T22:40:46.051Z,20.79
2023-09-01T22:43:13.605Z,20.78
2023-09-01T22:45:40.056Z,20.77
2023-09-01T22:48:06.766Z,20.75
2023-09-01T22:50:33.248Z,20.76
2023-09-01T22:52:59.633Z,20.75
2023-09-01T22:55:28.726Z,20.73
2023-09-01T22:57:56.578Z,20.72
2023-09-01T23:00:23.523Z,20.72
2023-09-01T23:02:50.039Z,20.71
2023-09-01T23:05:16.679Z,20.71
2023-09-01T23:07:43.171Z,20.70
2023-09-01T23:10:10.476Z,20.69
2023-09-01T23:12:36.911Z,20.67
2023-09-01T23:15:04.678Z,20.68
2023-09-01T23:17:32.517Z,20.67
2023-09-01T23:19:58.977Z,20.67
2023-09-01T23:22:27.757Z,20.65
2023-09-01T23:24:54.412Z,20.65
2023-09-01T23:27:20.941Z,20.64
2023-09-01T23:29:47.384Z,20.64
2023-09-01T23:32:13.866Z,20.63
2023-09-01T23:34:40.894Z,20.62
2023-09-01T23:37:07.656Z,20.62
2023-09-01T23:39:34.385Z,20.61
2023-09-01T23:42:00.931Z,20.61
2023-09-01T23:44:27.508Z,20.59
2023-09-01T23:46:54.167Z,20.59
2023-09-01T23:49:20.750Z,20.58
2023-09-01T23:51:47.242Z,20.58
2023-09-01T23:54:13.782Z,20.57
2023-09-01T23:56:40.298Z,20.56
2023-09-01T23:59:06.839Z,20.55
